createdAt,value
2018-06-15T00:00:44.134Z,12.03
2018-06-15T00:03:13.866Z,11.95
2018-06-15T00:05:43.574Z,11.95
2018-06-15T00:08:13.334Z,11.90
2018-06-15T00:10:42.802Z,11.88
2018-06-15T00:13:12.518Z,11.88
2018-06-15T00:15:42.245Z,11.86
2018-06-15T00:18:12.318Z,11.84
2018-06-15T00:20:42.041Z,11.81
2018-06-15T00:23:11.823Z,11.83
2018-06-15T00:25:42.006Z,11.92
2018-06-15T00:28:11.713Z,12.07
2018-06-15T00:30:41.417Z,12.10
2018-06-15T00:35:43.622Z,12.11
2018-06-15T00:38:13.310Z,12.10
2018-06-15T00:40:43.090Z,12.03
2018-06-15T00:43:12.758Z,12.06
2018-06-15T00:45:42.495Z,12.01
2018-06-15T00:48:12.195Z,12.01
2018-06-15T00:50:41.989Z,11.97
2018-06-15T00:53:11.725Z,11.85
2018-06-15T00:55:41.425Z,11.73
2018-06-15T00:58:11.296Z,11.64
2018-06-15T01:00:41.003Z,11.56
2018-06-15T01:03:10.695Z,11.52
2018-06-15T01:05:40.450Z,11.53
2018-06-15T01:08:10.207Z,11.53
2018-06-15T01:10:39.950Z,11.57
2018-06-15T01:13:09.646Z,11.54
2018-06-15T01:15:39.466Z,11.52
2018-06-15T01:18:09.234Z,11.47
2018-06-15T01:20:39.014Z,11.39
2018-06-15T01:23:08.856Z,11.38
2018-06-15T01:25:38.287Z,11.43
2018-06-15T01:28:08.113Z,11.48
2018-06-15T01:30:37.907Z,11.46
2018-06-15T01:33:07.380Z,11.37
2018-06-15T01:35:37.105Z,11.30
2018-06-15T01:38:06.827Z,11.37
2018-06-15T01:40:36.616Z,11.41
2018-06-15T01:43:06.442Z,11.31
2018-06-15T01:45:36.178Z,11.32
2018-06-15T01:48:06.179Z,11.31
2018-06-15T01:50:36.100Z,11.20
2018-06-15T01:53:06.084Z,11.10
2018-06-15T01:55:35.828Z,11.00
2018-06-15T01:58:05.629Z,10.95
2018-06-15T02:00:35.400Z,10.95
2018-06-15T02:03:05.171Z,10.98
2018-06-15T02:05:34.879Z,10.98
2018-06-15T02:08:04.818Z,10.97
2018-06-15T02:10:34.416Z,10.95
2018-06-15T02:13:04.375Z,10.98
2018-06-15T02:15:34.074Z,10.94
2018-06-15T02:18:03.903Z,10.92
2018-06-15T02:20:33.796Z,10.85
2018-06-15T02:23:04.306Z,10.78
2018-06-15T02:25:34.201Z,10.74
2018-06-15T02:28:04.838Z,10.71
2018-06-15T02:30:34.599Z,10.72
2018-06-15T02:33:04.556Z,10.85
2018-06-15T02:35:34.402Z,10.86
2018-06-15T02:38:04.208Z,10.98
2018-06-15T02:40:33.961Z,11.01
2018-06-15T02:43:03.642Z,11.08
2018-06-15T02:45:33.485Z,11.10
2018-06-15T02:48:03.403Z,11.09
2018-06-15T02:50:33.444Z,11.00
2018-06-15T02:53:03.323Z,11.01
2018-06-15T02:55:33.923Z,11.06
2018-06-15T02:58:04.139Z,11.09
2018-06-15T03:00:33.923Z,11.27
2018-06-15T03:03:03.796Z,11.46
2018-06-15T03:05:33.750Z,11.48
2018-06-15T03:08:03.477Z,11.53
2018-06-15T03:10:33.409Z,11.53
2018-06-15T03:13:03.224Z,11.70
2018-06-15T03:15:33.195Z,11.80
2018-06-15T03:18:02.942Z,11.84
2018-06-15T03:20:32.682Z,11.80
2018-06-15T03:23:02.854Z,11.87
2018-06-15T03:25:32.602Z,11.82
2018-06-15T03:28:02.165Z,11.84
2018-06-15T03:30:31.876Z,11.91
2018-06-15T03:33:01.695Z,12.03
2018-06-15T03:35:31.571Z,12.24
2018-06-15T03:38:01.452Z,12.45
2018-06-15T03:40:31.311Z,12.52
2018-06-15T03:43:01.299Z,12.61
2018-06-15T03:45:31.006Z,12.83
2018-06-15T03:48:00.796Z,13.01
2018-06-15T03:50:30.582Z,13.18
2018-06-15T03:53:00.319Z,13.34
2018-06-15T03:55:30.403Z,13.53
2018-06-15T03:58:00.146Z,13.74
2018-06-15T04:00:30.154Z,13.89
2018-06-15T04:02:59.659Z,14.06
2018-06-15T04:05:29.386Z,14.25
2018-06-15T04:07:59.112Z,14.38
2018-06-15T04:10:28.891Z,14.53
2018-06-15T04:12:58.908Z,14.66
2018-06-15T04:15:28.931Z,14.80
2018-06-15T04:18:13.124Z,14.97
2018-06-15T04:20:42.972Z,15.16
2018-06-15T04:23:12.763Z,15.39
2018-06-15T04:25:42.563Z,15.58
2018-06-15T04:28:12.242Z,15.75
2018-06-15T04:30:41.964Z,15.93
2018-06-15T04:33:11.810Z,16.19
2018-06-15T04:35:41.590Z,16.55
2018-06-15T04:38:11.542Z,16.88
2018-06-15T04:40:41.708Z,17.17
2018-06-15T04:43:11.421Z,17.45
2018-06-15T04:45:41.223Z,17.69
2018-06-15T04:48:10.991Z,17.95
2018-06-15T04:50:40.711Z,18.26
2018-06-15T04:53:10.627Z,18.59
2018-06-15T04:55:40.406Z,19.14
2018-06-15T04:58:10.214Z,19.92
2018-06-15T05:00:39.954Z,20.83
2018-06-15T05:03:14.227Z,21.92
2018-06-15T05:05:45.096Z,23.33
2018-06-15T05:08:15.013Z,24.74
2018-06-15T05:10:44.726Z,26.17
2018-06-15T05:13:15.030Z,27.41
2018-06-15T05:15:45.314Z,28.55
2018-06-15T05:18:15.774Z,29.71
2018-06-15T05:20:46.069Z,30.65
2018-06-15T05:23:16.836Z,31.32
2018-06-15T05:25:47.309Z,31.85
2018-06-15T05:28:17.562Z,32.12
2018-06-15T05:30:47.848Z,32.24
2018-06-15T05:33:18.705Z,31.51
2018-06-15T05:35:50.220Z,31.60
2018-06-15T05:38:20.946Z,32.01
2018-06-15T05:40:51.232Z,32.47
2018-06-15T05:43:22.055Z,33.64
2018-06-15T05:45:52.594Z,34.68
2018-06-15T05:48:23.202Z,35.97
2018-06-15T05:50:53.564Z,37.19
2018-06-15T05:53:24.927Z,38.10
2018-06-15T05:55:55.302Z,39.12
2018-06-15T05:58:25.540Z,39.85
2018-06-15T06:00:55.761Z,40.60
2018-06-15T06:03:25.981Z,40.98
2018-06-15T06:05:56.078Z,41.37
2018-06-15T06:08:26.099Z,41.78
2018-06-15T06:10:56.153Z,42.46
2018-06-15T06:13:26.158Z,43.01
2018-06-15T06:15:56.186Z,43.39
2018-06-15T06:18:26.295Z,43.78
2018-06-15T06:20:56.381Z,44.14
2018-06-15T06:23:26.406Z,44.51
2018-06-15T06:25:56.343Z,45.00
2018-06-15T06:28:26.348Z,45.41
2018-06-15T06:30:56.606Z,45.62
2018-06-15T06:33:26.666Z,45.07
2018-06-15T06:35:56.696Z,44.87
2018-06-15T06:38:26.530Z,44.75
2018-06-15T06:40:56.345Z,45.06
2018-06-15T06:43:26.101Z,45.48
2018-06-15T06:45:56.097Z,46.10
2018-06-15T06:48:26.074Z,46.31
2018-06-15T06:50:56.555Z,46.98
2018-06-15T06:53:27.090Z,46.41
2018-06-15T06:55:57.303Z,46.50
2018-06-15T07:00:58.104Z,47.48
2018-06-15T07:03:28.320Z,47.62
2018-06-15T07:05:58.682Z,47.61
2018-06-15T07:08:28.862Z,47.96
2018-06-15T07:10:58.957Z,48.23
2018-06-15T07:13:29.591Z,48.50
2018-06-15T07:15:59.922Z,48.27
2018-06-15T07:18:29.947Z,47.38
2018-06-15T07:21:00.095Z,47.04
2018-06-15T07:23:30.282Z,46.80
2018-06-15T07:26:00.496Z,46.82
2018-06-15T07:28:30.642Z,46.87
2018-06-15T07:31:00.988Z,46.45
2018-06-15T07:33:30.984Z,45.11
2018-06-15T07:36:01.287Z,43.84
2018-06-15T07:38:31.356Z,43.47
2018-06-15T07:41:01.348Z,44.03
2018-06-15T07:43:31.291Z,44.60
2018-06-15T07:46:01.971Z,44.83
2018-06-15T07:48:32.222Z,44.97
2018-06-15T07:51:02.232Z,44.65
2018-06-15T07:53:32.677Z,44.62
2018-06-15T07:56:02.719Z,44.93
2018-06-15T07:58:32.781Z,45.09
2018-06-15T08:01:02.808Z,45.25
2018-06-15T08:03:32.991Z,46.10
2018-06-15T08:06:03.698Z,46.28
2018-06-15T08:08:33.771Z,46.06
2018-06-15T08:11:04.434Z,46.19
2018-06-15T08:13:34.503Z,45.53
2018-06-15T08:16:04.834Z,43.50
2018-06-15T08:18:34.860Z,41.31
2018-06-15T08:21:04.943Z,40.78
2018-06-15T08:23:35.240Z,40.99
2018-06-15T08:26:05.320Z,41.81
2018-06-15T08:28:35.394Z,42.23
2018-06-15T08:31:05.600Z,41.46
2018-06-15T08:33:35.578Z,40.28
2018-06-15T08:36:06.076Z,40.72
2018-06-15T08:38:36.168Z,41.85
2018-06-15T08:41:06.190Z,42.45
2018-06-15T08:43:36.230Z,43.49
2018-06-15T08:46:06.363Z,44.50
2018-06-15T08:48:36.346Z,45.38
2018-06-15T08:51:06.464Z,45.83
2018-06-15T08:53:36.743Z,46.38
2018-06-15T08:56:06.731Z,46.43
2018-06-15T08:58:36.716Z,45.13
2018-06-15T09:01:06.856Z,44.51
2018-06-15T09:03:36.927Z,44.19
2018-06-15T09:06:07.300Z,44.52
2018-06-15T09:08:37.407Z,44.93
2018-06-15T09:11:07.606Z,44.81
2018-06-15T09:13:37.620Z,44.18
2018-06-15T09:16:07.616Z,44.14
2018-06-15T09:18:37.652Z,43.57
2018-06-15T09:21:07.827Z,42.95
2018-06-15T09:23:38.779Z,42.33
2018-06-15T09:26:09.307Z,42.03
2018-06-15T09:28:39.414Z,41.36
2018-06-15T09:31:09.525Z,41.53
2018-06-15T09:33:39.815Z,42.07
2018-06-15T09:36:09.913Z,42.21
2018-06-15T09:38:40.461Z,41.47
2018-06-15T09:41:10.540Z,39.63
2018-06-15T09:43:40.842Z,37.68
2018-06-15T09:46:11.219Z,36.08
2018-06-15T09:48:43.105Z,34.36
2018-06-15T09:51:15.631Z,33.72
2018-06-15T09:53:46.043Z,33.46
2018-06-15T09:56:16.741Z,33.14
2018-06-15T09:58:47.206Z,33.21
2018-06-15T10:01:17.561Z,33.08
2018-06-15T10:03:47.828Z,32.81
2018-06-15T10:06:18.234Z,32.67
2018-06-15T10:08:48.515Z,32.60
2018-06-15T10:11:18.919Z,32.74
2018-06-15T10:13:49.278Z,33.03
2018-06-15T10:16:19.657Z,33.20
2018-06-15T10:18:50.931Z,33.41
2018-06-15T10:21:21.304Z,33.22
2018-06-15T10:23:51.574Z,32.96
2018-06-15T10:26:21.975Z,32.62
2018-06-15T10:28:52.648Z,31.69
2018-06-15T10:31:23.286Z,31.44
2018-06-15T10:33:53.617Z,31.33
2018-06-15T10:36:23.921Z,31.37
2018-06-15T10:38:54.037Z,31.54
2018-06-15T10:41:24.510Z,31.63
2018-06-15T10:43:54.825Z,31.78
2018-06-15T10:46:25.183Z,31.66
2018-06-15T10:48:55.787Z,31.21
2018-06-15T10:51:26.711Z,30.77
2018-06-15T10:53:57.192Z,30.40
2018-06-15T10:56:27.671Z,30.20
2018-06-15T10:58:58.099Z,30.24
2018-06-15T11:01:28.528Z,30.31
2018-06-15T11:03:58.903Z,30.27
2018-06-15T11:06:29.299Z,30.10
2018-06-15T11:08:59.758Z,29.91
2018-06-15T11:11:30.291Z,29.74
2018-06-15T11:14:00.639Z,29.59
2018-06-15T11:16:30.987Z,29.45
2018-06-15T11:19:01.316Z,29.37
2018-06-15T11:21:31.840Z,29.22
2018-06-15T11:24:02.227Z,29.23
2018-06-15T11:26:32.667Z,29.07
2018-06-15T11:29:03.196Z,28.91
2018-06-15T11:31:33.482Z,28.58
2018-06-15T11:34:03.907Z,28.34
2018-06-15T11:36:34.283Z,28.21
2018-06-15T11:39:06.888Z,28.13
2018-06-15T11:41:37.996Z,28.01
2018-06-15T11:44:08.387Z,27.91
2018-06-15T11:46:38.791Z,27.91
2018-06-15T11:49:09.091Z,27.79
2018-06-15T11:51:39.465Z,27.76
2018-06-15T11:54:10.020Z,27.99
2018-06-15T11:56:40.319Z,28.43
2018-06-15T11:59:10.819Z,28.96
2018-06-15T12:01:41.251Z,29.43
2018-06-15T12:04:12.511Z,29.90
2018-06-15T12:06:42.983Z,30.26
2018-06-15T12:09:13.079Z,30.36
2018-06-15T12:11:43.449Z,30.25
2018-06-15T12:14:13.710Z,30.18
2018-06-15T12:16:44.042Z,29.82
2018-06-15T12:19:14.335Z,29.33
2018-06-15T12:21:44.644Z,28.96
2018-06-15T12:24:14.899Z,28.68
2018-06-15T12:26:45.273Z,28.47
2018-06-15T12:29:15.678Z,28.28
2018-06-15T12:31:46.118Z,28.18
2018-06-15T12:34:16.539Z,28.18
2018-06-15T12:36:47.094Z,28.21
2018-06-15T12:39:17.476Z,28.21
2018-06-15T12:41:47.743Z,28.24
2018-06-15T12:44:18.088Z,28.49
2018-06-15T12:46:48.531Z,28.84
2018-06-15T12:49:18.967Z,29.04
2018-06-15T12:51:49.254Z,29.08
2018-06-15T12:54:19.863Z,28.98
2018-06-15T12:56:50.291Z,28.87
2018-06-15T12:59:20.690Z,28.62
2018-06-15T13:01:51.052Z,28.38
2018-06-15T13:04:21.446Z,28.33
2018-06-15T13:06:51.797Z,28.45
2018-06-15T13:09:22.090Z,28.38
2018-06-15T13:11:52.345Z,28.28
2018-06-15T13:14:23.227Z,28.22
2018-06-15T13:16:53.601Z,28.23
2018-06-15T13:19:23.911Z,28.25
2018-06-15T13:21:54.394Z,28.38
2018-06-15T13:24:25.476Z,28.53
2018-06-15T13:26:55.832Z,28.53
2018-06-15T13:29:26.171Z,28.52
2018-06-15T13:31:56.582Z,28.52
2018-06-15T13:34:27.084Z,28.55
2018-06-15T13:36:57.376Z,28.41
2018-06-15T13:39:27.705Z,28.24
2018-06-15T13:41:58.104Z,28.17
2018-06-15T13:44:28.450Z,28.02
2018-06-15T13:46:58.846Z,27.83
2018-06-15T13:49:29.113Z,27.78
2018-06-15T13:51:59.444Z,27.74
2018-06-15T13:54:30.090Z,27.70
2018-06-15T13:57:00.754Z,27.66
2018-06-15T13:59:31.034Z,27.64
2018-06-15T14:02:01.429Z,27.65
2018-06-15T14:04:31.706Z,27.60
2018-06-15T14:07:02.255Z,27.62
2018-06-15T14:09:32.855Z,27.76
2018-06-15T14:12:03.190Z,27.98
2018-06-15T14:14:34.011Z,28.13
2018-06-15T14:17:04.510Z,28.18
2018-06-15T14:19:34.788Z,28.26
2018-06-15T14:22:05.940Z,28.33
2018-06-15T14:24:36.278Z,28.21
2018-06-15T14:27:06.730Z,28.10
2018-06-15T14:29:37.668Z,28.04
2018-06-15T14:32:08.096Z,27.99
2018-06-15T14:34:38.418Z,28.00
2018-06-15T14:37:08.768Z,28.02
2018-06-15T14:39:39.127Z,28.13
2018-06-15T14:42:09.630Z,28.26
2018-06-15T14:44:39.999Z,28.36
2018-06-15T14:47:10.926Z,28.42
2018-06-15T14:49:41.391Z,28.36
2018-06-15T14:52:12.376Z,28.21
2018-06-15T14:54:42.979Z,28.07
2018-06-15T14:57:13.315Z,27.97
2018-06-15T14:59:43.916Z,27.81
2018-06-15T15:02:14.166Z,27.58
2018-06-15T15:04:44.645Z,27.38
2018-06-15T15:07:14.988Z,27.23
2018-06-15T15:09:45.615Z,27.04
2018-06-15T15:12:16.041Z,26.92
2018-06-15T15:14:46.929Z,26.86
2018-06-15T15:17:17.282Z,26.84
2018-06-15T15:19:47.631Z,26.78
2018-06-15T15:22:18.213Z,26.79
2018-06-15T15:24:48.983Z,26.73
2018-06-15T15:27:19.634Z,26.70
2018-06-15T15:29:50.082Z,26.71
2018-06-15T15:32:21.009Z,26.68
2018-06-15T15:34:51.462Z,26.63
2018-06-15T15:37:21.823Z,26.65
2018-06-15T15:39:52.224Z,26.62
2018-06-15T15:42:22.561Z,26.53
2018-06-15T15:44:52.939Z,26.44
2018-06-15T15:47:24.815Z,26.34
2018-06-15T15:49:55.655Z,26.27
2018-06-15T15:52:25.978Z,26.24
2018-06-15T15:54:56.530Z,26.16
2018-06-15T15:57:26.855Z,26.16
2018-06-15T15:59:57.454Z,26.09
2018-06-15T16:02:27.792Z,26.04
2018-06-15T16:04:58.143Z,25.97
2018-06-15T16:07:28.476Z,25.91
2018-06-15T16:09:58.838Z,25.81
2018-06-15T16:12:30.038Z,25.76
2018-06-15T16:15:00.320Z,25.73
2018-06-15T16:17:30.664Z,25.70
2018-06-15T16:20:00.967Z,25.60
2018-06-15T16:22:30.959Z,25.49
2018-06-15T16:25:01.239Z,25.31
2018-06-15T16:27:31.035Z,25.18
2018-06-15T16:30:01.356Z,25.09
2018-06-15T16:32:31.998Z,24.99
2018-06-15T16:35:01.737Z,24.88
2018-06-15T16:37:31.457Z,24.79
2018-06-15T16:40:01.254Z,24.78
2018-06-15T16:42:30.999Z,24.74
2018-06-15T16:45:01.308Z,24.64
2018-06-15T16:47:31.055Z,24.51
2018-06-15T16:50:00.840Z,24.38
2018-06-15T16:52:30.885Z,24.23
2018-06-15T16:55:00.867Z,24.09
2018-06-15T16:57:30.589Z,23.98
2018-06-15T17:00:00.371Z,23.84
2018-06-15T17:02:30.122Z,23.73
2018-06-15T17:04:59.906Z,23.63
2018-06-15T17:07:29.643Z,23.58
2018-06-15T17:09:59.471Z,23.48
2018-06-15T17:12:29.235Z,23.35
2018-06-15T17:14:59.070Z,23.22
2018-06-15T17:17:28.799Z,23.14
2018-06-15T17:20:00.122Z,22.99
2018-06-15T17:22:30.346Z,22.87
2018-06-15T17:25:00.307Z,22.82
2018-06-15T17:27:30.295Z,22.71
2018-06-15T17:30:00.199Z,22.64
2018-06-15T17:32:30.169Z,22.57
2018-06-15T17:35:00.387Z,22.43
2018-06-15T17:37:30.979Z,22.38
2018-06-15T17:40:00.768Z,22.34
2018-06-15T17:42:30.564Z,22.27
2018-06-15T17:45:00.616Z,22.20
2018-06-15T17:47:30.036Z,22.15
2018-06-15T17:49:59.871Z,22.08
2018-06-15T17:52:29.960Z,22.09
2018-06-15T17:54:59.735Z,22.08
2018-06-15T17:57:29.455Z,22.09
2018-06-15T17:59:59.175Z,22.08
2018-06-15T18:02:28.907Z,22.03
2018-06-15T18:04:58.684Z,21.98
2018-06-15T18:07:28.390Z,21.93
2018-06-15T18:09:58.232Z,21.88
2018-06-15T18:12:27.960Z,21.81
2018-06-15T18:14:57.816Z,21.74
2018-06-15T18:17:27.790Z,21.74
2018-06-15T18:19:57.706Z,21.67
2018-06-15T18:22:27.428Z,21.62
2018-06-15T18:24:57.126Z,21.59
2018-06-15T18:27:27.272Z,21.56
2018-06-15T18:29:56.981Z,21.47
2018-06-15T18:32:26.651Z,21.35
2018-06-15T18:34:56.473Z,21.20
2018-06-15T18:37:26.276Z,21.11
2018-06-15T18:39:56.033Z,21.09
2018-06-15T18:42:25.736Z,20.99
2018-06-15T18:44:55.445Z,20.83
2018-06-15T18:47:25.183Z,20.80
2018-06-15T18:49:54.878Z,20.75
2018-06-15T18:52:24.844Z,20.71
2018-06-15T18:54:54.722Z,20.66
2018-06-15T18:57:24.538Z,20.49
2018-06-15T18:59:54.239Z,20.36
2018-06-15T19:02:23.958Z,20.39
2018-06-15T19:04:53.748Z,20.30
2018-06-15T19:07:23.461Z,20.20
2018-06-15T19:09:53.234Z,20.04
2018-06-15T19:12:22.678Z,19.97
2018-06-15T19:14:52.422Z,19.87
2018-06-15T19:17:22.151Z,19.74
2018-06-15T19:19:51.849Z,19.60
2018-06-15T19:22:21.560Z,19.45
2018-06-15T19:24:51.366Z,19.32
2018-06-15T19:27:22.054Z,19.20
2018-06-15T19:29:51.791Z,19.12
2018-06-15T19:32:21.250Z,18.98
2018-06-15T19:34:50.986Z,18.94
2018-06-15T19:37:20.738Z,18.88
2018-06-15T19:39:50.487Z,18.85
2018-06-15T19:42:20.260Z,18.75
2018-06-15T19:44:49.975Z,18.63
2018-06-15T19:47:19.921Z,18.60
2018-06-15T19:49:49.816Z,18.61
2018-06-15T19:52:19.580Z,18.58
2018-06-15T19:54:49.670Z,18.53
2018-06-15T19:57:19.618Z,18.51
2018-06-15T19:59:49.313Z,18.53
2018-06-15T20:02:18.993Z,18.58
2018-06-15T20:04:48.763Z,18.45
2018-06-15T20:07:18.547Z,18.30
2018-06-15T20:09:48.305Z,18.24
2018-06-15T20:12:18.007Z,18.05
2018-06-15T20:14:47.707Z,18.00
2018-06-15T20:17:17.382Z,18.02
2018-06-15T20:19:47.086Z,17.95
2018-06-15T20:22:17.347Z,17.93
2018-06-15T20:24:47.235Z,17.88
2018-06-15T20:27:17.028Z,17.88
2018-06-15T20:29:46.766Z,17.82
2018-06-15T20:32:16.552Z,17.88
2018-06-15T20:34:46.400Z,17.89
2018-06-15T20:37:16.262Z,17.81
2018-06-15T20:39:46.094Z,17.67
2018-06-15T20:42:15.926Z,17.70
2018-06-15T20:44:45.699Z,17.72
2018-06-15T20:47:15.522Z,17.73
2018-06-15T20:49:45.277Z,17.64
2018-06-15T20:52:15.087Z,17.52
2018-06-15T20:54:45.437Z,17.39
2018-06-15T20:57:15.517Z,17.32
2018-06-15T20:59:45.284Z,17.22
2018-06-15T21:02:14.994Z,17.18
2018-06-15T21:04:44.687Z,17.09
2018-06-15T21:07:14.458Z,16.98
2018-06-15T21:09:44.224Z,16.93
2018-06-15T21:12:14.092Z,16.92
2018-06-15T21:14:43.852Z,17.03
2018-06-15T21:17:13.319Z,16.99
2018-06-15T21:19:43.060Z,16.86
2018-06-15T21:22:12.769Z,16.78
2018-06-15T21:24:42.581Z,16.65
2018-06-15T21:27:12.422Z,16.60
2018-06-15T21:29:42.181Z,16.51
2018-06-15T21:32:11.903Z,16.46
2018-06-15T21:34:41.624Z,16.40
2018-06-15T21:37:11.128Z,16.25
2018-06-15T21:39:40.845Z,16.19
2018-06-15T21:42:10.536Z,16.38
2018-06-15T21:44:40.256Z,16.42
2018-06-15T21:47:09.964Z,16.46
2018-06-15T21:49:39.710Z,16.30
2018-06-15T21:52:09.417Z,16.14
2018-06-15T21:54:39.184Z,16.06
2018-06-15T21:57:08.627Z,16.07
2018-06-15T21:59:38.506Z,16.24
2018-06-15T22:02:08.251Z,16.36
2018-06-15T22:04:37.950Z,16.39
2018-06-15T22:07:07.648Z,16.38
2018-06-15T22:09:37.360Z,16.27
2018-06-15T22:12:07.082Z,16.15
2018-06-15T22:14:36.828Z,16.01
2018-06-15T22:17:06.563Z,15.86
2018-06-15T22:19:36.306Z,15.73
2018-06-15T22:22:06.044Z,15.84
2018-06-15T22:24:35.769Z,15.89
2018-06-15T22:27:05.625Z,15.99
2018-06-15T22:29:35.319Z,15.94
2018-06-15T22:32:05.077Z,15.82
2018-06-15T22:34:34.779Z,15.83
2018-06-15T22:37:04.496Z,15.80
2018-06-15T22:39:34.224Z,15.86
2018-06-15T22:42:03.947Z,15.80
2018-06-15T22:44:33.683Z,15.88
2018-06-15T22:47:03.380Z,15.76
2018-06-15T22:49:32.818Z,15.66
2018-06-15T22:52:02.581Z,15.54
2018-06-15T22:54:32.279Z,15.38
2018-06-15T22:57:02.009Z,15.33
2018-06-15T22:59:31.722Z,15.26
2018-06-15T23:02:01.443Z,15.18
2018-06-15T23:04:31.184Z,15.10
2018-06-15T23:07:00.887Z,15.08
2018-06-15T23:09:30.582Z,15.09
2018-06-15T23:12:00.332Z,15.00
2018-06-15T23:14:30.040Z,14.92
2018-06-15T23:16:59.515Z,14.78
2018-06-15T23:19:28.948Z,14.71
2018-06-15T23:21:58.640Z,14.66
2018-06-15T23:24:28.355Z,14.67
2018-06-15T23:26:58.076Z,14.73
2018-06-15T23:29:27.838Z,14.63
2018-06-15T23:31:57.550Z,14.55
2018-06-15T23:34:27.272Z,14.49
2018-06-15T23:36:56.986Z,14.71
2018-06-15T23:39:26.703Z,14.81
2018-06-15T23:41:56.455Z,14.74
2018-06-15T23:44:26.158Z,14.63
2018-06-15T23:46:55.863Z,14.54
2018-06-15T23:49:25.591Z,14.58
2018-06-15T23:51:55.297Z,14.49
2018-06-15T23:54:25.060Z,14.36
2018-06-15T23:56:54.776Z,14.25
2018-06-15T23:59:24.471Z,14.16
